Time;durP1;ratioP1;P1;durP2;ratioP2;P2;SDS_P1;SDS_P2;PMS_P1;PMS_P2;Temp;Humidity;BMP_temperature;BMP_pressure;BME280_temperature;BME280_humidity;BME280_pressure;Samples;Min_cycle;Max_cycle;Signal;HPM_P1;HPM_P2
2022/08/16 00:00:41;;;;;;;13.00;6.85;;;20.60;99.90;;;;;;5114505;28;20051;-71
2022/08/16 00:03:08;;;;;;;8.15;5.93;;;20.50;99.90;;;;;;5118594;28;20031;-72
2022/08/16 00:05:34;;;;;;;15.00;6.75;;;20.50;99.90;;;;;;5118007;28;20012;-71
2022/08/16 00:08:00;;;;;;;10.05;5.75;;;20.50;99.90;;;;;;5118365;28;20505;-72
2022/08/16 00:10:29;;;;;;;16.08;7.05;;;20.50;99.90;;;;;;5116887;28;20110;-71
2022/08/16 00:12:55;;;;;;;10.27;6.03;;;20.50;99.90;;;;;;5118578;28;20027;-71
2022/08/16 00:15:26;;;;;;;9.05;6.00;;;20.50;99.90;;;;;;5117661;28;20032;-72
2022/08/16 00:17:51;;;;;;;7.68;5.70;;;20.40;99.90;;;;;;5115389;28;20028;-71
2022/08/16 00:20:20;;;;;;;10.30;5.70;;;20.40;99.90;;;;;;5112620;28;20027;-71
2022/08/16 00:22:46;;;;;;;12.95;6.50;;;20.40;99.90;;;;;;5114712;28;20027;-71
2022/08/16 00:25:15;;;;;;;10.18;6.10;;;20.40;99.90;;;;;;5113239;28;21688;-72
2022/08/16 00:27:41;;;;;;;10.23;6.47;;;20.30;99.90;;;;;;5118152;28;20434;-71
2022/08/16 00:30:10;;;;;;;13.23;6.30;;;20.30;99.90;;;;;;5117780;28;20020;-71
2022/08/16 00:32:38;;;;;;;9.43;6.30;;;20.20;99.90;;;;;;5117975;28;20472;-71
2022/08/16 00:35:06;;;;;;;8.80;5.85;;;20.20;99.90;;;;;;5118115;28;20054;-71
2022/08/16 00:37:32;;;;;;;9.80;6.70;;;20.20;99.90;;;;;;5117912;28;20023;-71
2022/08/16 00:39:58;;;;;;;8.38;6.45;;;20.10;99.90;;;;;;5117247;28;20018;-72
2022/08/16 00:42:26;;;;;;;10.00;6.28;;;20.10;99.90;;;;;;5118168;28;20020;-72
2022/08/16 00:44:59;;;;;;;12.55;5.95;;;20.00;99.90;;;;;;5117945;28;20008;-71
2022/08/16 00:47:25;;;;;;;12.60;6.35;;;20.00;99.90;;;;;;5117802;28;20030;-72
2022/08/16 00:49:52;;;;;;;13.80;6.65;;;20.00;99.90;;;;;;5117063;28;20496;-72
2022/08/16 00:52:18;;;;;;;9.80;6.60;;;20.00;99.90;;;;;;5112776;28;20028;-71
2022/08/16 00:54:45;;;;;;;8.18;6.55;;;20.00;99.90;;;;;;5117732;28;20028;-71
2022/08/16 00:57:12;;;;;;;11.23;7.63;;;19.90;99.90;;;;;;5116340;28;20030;-72
2022/08/16 00:59:39;;;;;;;7.10;5.80;;;19.90;99.90;;;;;;5114553;28;20034;-71
2022/08/16 01:02:08;;;;;;;12.05;6.47;;;19.90;99.90;;;;;;5110721;28;20062;-72
2022/08/16 01:04:35;;;;;;;11.80;6.75;;;19.80;99.90;;;;;;5113230;28;20020;-72
2022/08/16 01:07:04;;;;;;;9.57;6.32;;;19.80;99.90;;;;;;5111856;28;20111;-73
2022/08/16 01:09:33;;;;;;;11.20;6.00;;;19.70;99.90;;;;;;5115578;28;20038;-72
2022/08/16 01:11:59;;;;;;;8.15;5.95;;;19.70;99.90;;;;;;5103543;28;20085;-72
2022/08/16 01:14:33;;;;;;;11.32;7.13;;;19.70;99.90;;;;;;5115302;28;20395;-72
2022/08/16 01:17:02;;;;;;;10.88;7.38;;;19.70;99.90;;;;;;5106283;28;20031;-72
2022/08/16 01:19:32;;;;;;;12.10;6.93;;;19.60;99.90;;;;;;5114288;28;20027;-72
2022/08/16 01:22:25;;;;;;;11.63;7.05;;;19.60;99.90;;;;;;5117586;28;20028;-72
2022/08/16 01:24:57;;;;;;;9.93;7.38;;;19.60;99.90;;;;;;5114994;28;20387;-72
2022/08/16 01:27:36;;;;;;;9.25;7.35;;;19.50;99.90;;;;;;5119436;28;20032;-73
2022/08/16 01:30:19;;;;;;;9.50;7.25;;;19.50;99.90;;;;;;5121805;28;20027;-72
2022/08/16 01:32:45;;;;;;;12.48;6.88;;;19.50;99.90;;;;;;5120089;28;20024;-73
2022/08/16 01:35:16;;;;;;;11.27;7.60;;;19.40;99.90;;;;;;5121527;28;20498;-73
2022/08/16 01:37:48;;;;;;;10.18;7.38;;;19.40;99.90;;;;;;5119993;28;20024;-73
2022/08/16 01:40:16;;;;;;;14.90;6.63;;;19.40;99.90;;;;;;5121433;28;20024;-72
2022/08/16 01:42:44;;;;;;;10.18;6.88;;;19.30;99.90;;;;;;5121259;28;20100;-72
2022/08/16 01:45:10;;;;;;;9.35;6.53;;;19.30;99.90;;;;;;5119312;28;20019;-73
2022/08/16 01:47:38;;;;;;;15.27;7.70;;;19.30;99.90;;;;;;5121205;28;20497;-73
2022/08/16 01:50:05;;;;;;;10.60;7.05;;;19.20;99.90;;;;;;5121319;28;20028;-72
2022/08/16 01:52:32;;;;;;;13.95;7.82;;;19.20;99.90;;;;;;5121169;27;20052;-73
2022/08/16 01:54:58;;;;;;;26.08;8.73;;;19.20;99.90;;;;;;5119671;28;20034;-72
2022/08/16 01:57:24;;;;;;;9.63;7.05;;;19.20;99.90;;;;;;5120435;28;20833;-72
2022/08/16 01:59:51;;;;;;;14.45;7.22;;;19.20;99.90;;;;;;5118878;28;20023;-72
2022/08/16 02:02:17;;;;;;;14.93;7.88;;;19.10;99.90;;;;;;5120932;28;20542;-72
2022/08/16 02:04:43;;;;;;;8.98;7.03;;;19.10;99.90;;;;;;5119632;28;20031;-72
2022/08/16 02:07:09;;;;;;;14.30;7.97;;;19.10;99.90;;;;;;5120960;28;20023;-72
2022/08/16 02:09:37;;;;;;;12.02;7.70;;;19.10;99.90;;;;;;5120658;28;20146;-72
2022/08/16 02:12:06;;;;;;;14.23;7.45;;;19.00;99.90;;;;;;5116114;28;20096;-73
2022/08/16 02:14:32;;;;;;;12.30;7.25;;;19.00;99.90;;;;;;5120372;28;20093;-72
2022/08/16 02:17:02;;;;;;;11.93;7.13;;;19.00;99.90;;;;;;5107369;27;20059;-72
2022/08/16 02:19:30;;;;;;;12.18;8.05;;;19.00;99.90;;;;;;5120719;28;20030;-72
2022/08/16 02:21:58;;;;;;;10.25;7.70;;;18.90;99.90;;;;;;5114663;28;20027;-72
2022/08/16 02:24:24;;;;;;;10.57;7.20;;;18.90;99.90;;;;;;5118084;28;20051;-72
2022/08/16 02:26:51;;;;;;;12.32;7.47;;;18.90;99.90;;;;;;5119926;28;20105;-72
2022/08/16 02:29:18;;;;;;;14.38;7.35;;;18.80;99.90;;;;;;5120383;28;20030;-72
2022/08/16 02:31:48;;;;;;;10.07;7.00;;;18.80;99.90;;;;;;5120340;28;20090;-73
2022/08/16 02:34:15;;;;;;;12.10;7.57;;;18.80;99.90;;;;;;5120494;28;20131;-72
2022/08/16 02:36:42;;;;;;;10.18;8.05;;;18.80;99.90;;;;;;5120341;28;20023;-72
2022/08/16 02:39:10;;;;;;;10.30;7.68;;;18.70;99.90;;;;;;5118419;28;20532;-72
2022/08/16 02:41:37;;;;;;;11.57;7.85;;;18.70;99.90;;;;;;5118955;28;20047;-72
2022/08/16 02:44:05;;;;;;;10.60;7.13;;;18.70;99.90;;;;;;5116679;28;20444;-72
2022/08/16 02:46:32;;;;;;;17.75;7.82;;;18.70;99.90;;;;;;5107421;28;20080;-73
2022/08/16 02:48:59;;;;;;;11.82;8.13;;;18.70;99.90;;;;;;5120251;28;20079;-73
2022/08/16 02:51:26;;;;;;;13.05;9.27;;;18.70;99.90;;;;;;5119972;28;20077;-72
2022/08/16 02:53:53;;;;;;;12.00;7.60;;;18.60;99.90;;;;;;5119701;28;20365;-73
2022/08/16 02:56:19;;;;;;;14.77;7.63;;;18.60;99.90;;;;;;5119917;28;20027;-72
2022/08/16 02:58:48;;;;;;;12.27;7.55;;;18.60;99.90;;;;;;5119467;28;20999;-72
2022/08/16 03:01:16;;;;;;;13.98;8.30;;;18.60;99.90;;;;;;5118526;28;20045;-73
2022/08/16 03:03:42;;;;;;;13.77;8.77;;;18.50;99.90;;;;;;5118401;28;20103;-72
2022/08/16 03:06:08;;;;;;;9.52;8.48;;;18.40;99.90;;;;;;5120243;28;20051;-72
2022/08/16 03:08:34;;;;;;;10.82;8.05;;;18.40;99.90;;;;;;5118512;28;20030;-72
2022/08/16 03:11:01;;;;;;;11.15;8.70;;;18.20;99.90;;;;;;5119930;28;20034;-73
2022/08/16 03:13:27;;;;;;;12.82;8.73;;;18.20;99.90;;;;;;5119538;27;20020;-72
2022/08/16 03:15:53;;;;;;;15.65;8.32;;;18.10;99.90;;;;;;5119588;28;20085;-72
2022/08/16 03:18:19;;;;;;;11.98;8.55;;;18.10;99.90;;;;;;5117894;28;20016;-72
2022/08/16 03:20:45;;;;;;;13.82;8.98;;;18.00;99.90;;;;;;5117494;28;20042;-72
2022/08/16 03:23:11;;;;;;;11.63;8.82;;;18.00;99.90;;;;;;5119319;28;20004;-73
2022/08/16 03:25:37;;;;;;;22.20;8.80;;;18.00;99.90;;;;;;5116684;28;20080;-72
2022/08/16 03:28:05;;;;;;;9.30;7.90;;;18.00;99.90;;;;;;5119384;28;20012;-72
2022/08/16 03:30:32;;;;;;;19.02;8.40;;;18.00;99.90;;;;;;5117282;28;20027;-72
2022/08/16 03:32:58;;;;;;;11.57;8.75;;;17.90;99.90;;;;;;5119251;28;20020;-73
2022/08/16 03:35:30;;;;;;;12.40;8.48;;;17.90;99.90;;;;;;5119224;28;20051;-72
2022/08/16 03:37:59;;;;;;;13.90;9.02;;;17.80;99.90;;;;;;5119116;28;20023;-73
2022/08/16 03:40:25;;;;;;;14.25;8.38;;;17.80;99.90;;;;;;5118198;28;20020;-72
2022/08/16 03:42:52;;;;;;;10.02;8.38;;;17.80;99.90;;;;;;5117820;28;20026;-72
2022/08/16 03:45:18;;;;;;;12.75;8.35;;;17.80;99.90;;;;;;5119004;27;20027;-72
2022/08/16 03:47:46;;;;;;;15.10;9.57;;;17.70;99.90;;;;;;5118933;28;20024;-73
2022/08/16 03:50:14;;;;;;;14.60;8.57;;;17.70;99.90;;;;;;5116773;28;20035;-73
2022/08/16 03:52:41;;;;;;;12.77;8.82;;;17.60;99.90;;;;;;5114278;28;20111;-72
2022/08/16 03:55:08;;;;;;;13.73;8.43;;;17.60;99.90;;;;;;5115493;27;20054;-72
2022/08/16 03:57:34;;;;;;;11.55;8.75;;;17.60;99.90;;;;;;5117294;28;20529;-72
2022/08/16 04:00:00;;;;;;;11.63;8.25;;;17.60;99.90;;;;;;5118827;28;20889;-72
2022/08/16 04:02:27;;;;;;;11.20;8.02;;;17.50;99.90;;;;;;5117389;28;20093;-72
2022/08/16 04:04:53;;;;;;;12.52;8.40;;;17.50;99.90;;;;;;5118822;27;20026;-74
2022/08/16 04:07:18;;;;;;;11.00;8.45;;;17.50;99.90;;;;;;5118465;27;20083;-72
2022/08/16 04:09:44;;;;;;;9.38;8.05;;;17.50;99.90;;;;;;5118493;28;20539;-72
2022/08/16 04:12:11;;;;;;;15.75;8.77;;;17.50;99.90;;;;;;5116012;28;20098;-72
2022/08/16 04:14:38;;;;;;;13.57;8.30;;;17.40;99.90;;;;;;5108224;28;20032;-73
2022/08/16 04:17:04;;;;;;;14.15;8.32;;;17.40;99.90;;;;;;5114238;28;20020;-72
2022/08/16 04:19:30;;;;;;;10.55;7.63;;;17.40;99.90;;;;;;5117752;28;20038;-73
2022/08/16 04:21:56;;;;;;;11.10;7.93;;;17.30;99.90;;;;;;5110956;28;20061;-72
2022/08/16 04:24:22;;;;;;;14.77;8.23;;;17.30;99.90;;;;;;5115491;28;20027;-72
2022/08/16 04:26:48;;;;;;;15.60;8.40;;;17.20;99.90;;;;;;5118231;28;20055;-73
2022/08/16 04:29:15;;;;;;;11.57;8.15;;;17.20;99.90;;;;;;5111900;28;20028;-73
2022/08/16 04:31:41;;;;;;;11.25;8.55;;;17.10;99.90;;;;;;5107080;28;20564;-73
2022/08/16 04:34:06;;;;;;;15.50;9.10;;;17.10;99.90;;;;;;5115796;28;20031;-72
2022/08/16 04:36:34;;;;;;;12.07;8.65;;;17.10;99.90;;;;;;5117545;28;20032;-73
2022/08/16 04:39:00;;;;;;;14.02;9.20;;;17.10;99.90;;;;;;5116440;28;20069;-72
2022/08/16 04:41:28;;;;;;;12.40;9.13;;;17.10;99.90;;;;;;5117970;28;20016;-72
2022/08/16 04:43:53;;;;;;;14.73;8.75;;;17.00;99.90;;;;;;5117221;28;20376;-73
2022/08/16 04:46:19;;;;;;;13.65;8.73;;;17.00;99.90;;;;;;5115838;28;20024;-73
2022/08/16 04:48:45;;;;;;;14.93;8.60;;;17.00;99.90;;;;;;5110335;28;20036;-72
2022/08/16 04:51:11;;;;;;;15.32;8.38;;;16.90;99.90;;;;;;5117138;28;20043;-73
2022/08/16 04:53:37;;;;;;;13.88;9.73;;;16.90;99.90;;;;;;5117589;28;20488;-72
2022/08/16 04:56:03;;;;;;;13.32;9.02;;;16.90;99.90;;;;;;5117698;28;20095;-72
2022/08/16 04:58:31;;;;;;;11.95;8.15;;;16.90;99.90;;;;;;5115651;28;20063;-72
2022/08/16 05:00:57;;;;;;;10.70;8.57;;;16.90;99.90;;;;;;5117433;28;20023;-72
2022/08/16 05:03:22;;;;;;;11.90;8.27;;;16.90;99.90;;;;;;5117623;28;20575;-73
2022/08/16 05:05:49;;;;;;;10.15;7.80;;;16.90;99.90;;;;;;5117469;28;20434;-72
2022/08/16 05:08:15;;;;;;;12.57;8.05;;;16.90;99.90;;;;;;5117733;28;20040;-72
2022/08/16 05:10:40;;;;;;;11.38;8.38;;;16.90;99.90;;;;;;5117313;28;20494;-73
2022/08/16 05:13:07;;;;;;;13.23;8.30;;;16.90;99.90;;;;;;5114224;28;20024;-72
2022/08/16 05:15:34;;;;;;;9.60;7.80;;;17.00;99.90;;;;;;5115822;28;20444;-72
2022/08/16 05:17:59;;;;;;;10.02;8.32;;;17.00;99.90;;;;;;5113151;28;20032;-72
2022/08/16 05:20:26;;;;;;;10.93;7.40;;;17.00;99.90;;;;;;5117445;28;20114;-73
2022/08/16 05:22:52;;;;;;;12.95;8.13;;;17.00;99.90;;;;;;5107539;28;20484;-73
2022/08/16 05:25:18;;;;;;;10.77;8.02;;;17.00;99.90;;;;;;5114610;28;20066;-72
2022/08/16 05:27:44;;;;;;;14.43;8.20;;;17.00;99.90;;;;;;5117362;28;20483;-72
2022/08/16 05:30:12;;;;;;;14.30;8.52;;;17.10;99.90;;;;;;5114789;28;20046;-72
2022/08/16 05:32:39;;;;;;;13.13;7.85;;;17.20;99.90;;;;;;5113630;28;20054;-72
2022/08/16 05:35:08;;;;;;;9.52;8.00;;;17.20;99.90;;;;;;5104354;28;20024;-72
2022/08/16 05:37:35;;;;;;;10.00;7.90;;;17.20;99.90;;;;;;5109921;28;20028;-73
2022/08/16 05:40:01;;;;;;;11.98;7.97;;;17.30;99.90;;;;;;5105290;28;20024;-73
2022/08/16 05:42:27;;;;;;;14.20;8.50;;;17.40;99.90;;;;;;5108177;28;20058;-72
2022/08/16 05:44:52;;;;;;;11.30;7.78;;;17.50;99.90;;;;;;5108426;28;20035;-72
2022/08/16 05:47:18;;;;;;;11.60;8.00;;;17.50;99.90;;;;;;5109833;28;20042;-72
2022/08/16 05:49:44;;;;;;;19.73;9.07;;;17.60;99.90;;;;;;5114943;28;20073;-72
2022/08/16 05:52:11;;;;;;;12.50;8.65;;;17.70;99.90;;;;;;5112225;28;20028;-73
2022/08/16 05:54:37;;;;;;;9.13;7.97;;;17.70;99.90;;;;;;5112730;28;20054;-72
2022/08/16 05:57:04;;;;;;;12.80;8.80;;;17.90;99.90;;;;;;5109523;28;20089;-72
2022/08/16 05:59:30;;;;;;;11.48;7.80;;;17.90;99.90;;;;;;5112344;28;20049;-73
2022/08/16 06:01:56;;;;;;;12.95;7.85;;;18.00;99.90;;;;;;5116969;28;20074;-72
2022/08/16 06:04:22;;;;;;;10.23;7.60;;;18.10;99.90;;;;;;5116970;28;20135;-73
2022/08/16 06:06:48;;;;;;;15.45;7.78;;;18.20;99.90;;;;;;5109234;28;20019;-73
2022/08/16 06:09:16;;;;;;;8.98;7.35;;;18.30;99.90;;;;;;5115549;28;20024;-73
2022/08/16 06:11:43;;;;;;;14.88;7.97;;;18.40;99.90;;;;;;5112743;28;20024;-73
2022/08/16 06:14:10;;;;;;;12.43;8.35;;;18.50;99.90;;;;;;5120226;28;20081;-73
2022/08/16 06:16:36;;;;;;;8.23;7.20;;;18.60;99.90;;;;;;5119098;28;20031;-73
2022/08/16 06:19:03;;;;;;;7.82;6.78;;;18.80;99.90;;;;;;5109141;28;20027;-73
2022/08/16 06:21:29;;;;;;;7.72;6.95;;;18.90;99.90;;;;;;5120700;28;20016;-73
2022/08/16 06:23:55;;;;;;;9.27;6.63;;;19.00;99.90;;;;;;5120634;28;20023;-73
2022/08/16 06:26:21;;;;;;;12.85;6.75;;;19.20;99.90;;;;;;5120377;28;20123;-73
2022/08/16 06:28:48;;;;;;;12.23;7.05;;;19.30;99.90;;;;;;5120454;28;20015;-73
2022/08/16 06:31:15;;;;;;;15.52;6.40;;;19.40;99.90;;;;;;5119080;28;20020;-74
2022/08/16 06:33:42;;;;;;;9.70;6.45;;;19.50;99.90;;;;;;5118497;28;20030;-73
2022/08/16 06:36:09;;;;;;;11.55;6.60;;;19.70;99.90;;;;;;5120360;28;20074;-74
2022/08/16 06:38:36;;;;;;;14.35;6.50;;;19.80;99.90;;;;;;5117033;28;20035;-73
2022/08/16 06:41:04;;;;;;;11.00;7.63;;;20.00;99.90;;;;;;5118908;28;20491;-73
2022/08/16 06:43:31;;;;;;;11.93;6.55;;;20.10;99.90;;;;;;5120423;28;20031;-73
2022/08/16 06:45:57;;;;;;;13.02;7.47;;;20.20;99.90;;;;;;5117085;28;20021;-74
2022/08/16 06:48:23;;;;;;;12.25;7.55;;;20.40;99.90;;;;;;5120140;28;20025;-74
2022/08/16 06:50:51;;;;;;;10.60;6.22;;;20.60;99.90;;;;;;5111928;27;20052;-73
2022/08/16 06:53:17;;;;;;;9.02;6.00;;;20.70;99.90;;;;;;5119658;28;20079;-73
2022/08/16 06:55:43;;;;;;;11.52;6.63;;;20.80;99.90;;;;;;5119645;28;20048;-73
2022/08/16 06:58:09;;;;;;;8.90;5.88;;;21.00;99.90;;;;;;5120120;28;20873;-73
2022/08/16 07:00:36;;;;;;;13.88;5.82;;;21.20;99.90;;;;;;5119842;28;20052;-73
2022/08/16 07:03:02;;;;;;;8.77;5.68;;;21.20;99.90;;;;;;5117591;28;20027;-73
2022/08/16 07:05:30;;;;;;;10.05;5.13;;;21.40;99.90;;;;;;5119867;28;20024;-74
2022/08/16 07:07:56;;;;;;;9.15;5.72;;;21.40;99.90;;;;;;5119697;27;20015;-73
2022/08/16 07:10:23;;;;;;;11.02;5.32;;;21.60;99.90;;;;;;5119528;28;20506;-73
2022/08/16 07:12:49;;;;;;;8.55;5.20;;;21.70;99.90;;;;;;5119722;27;20395;-73
2022/08/16 07:15:16;;;;;;;6.13;4.97;;;21.80;99.90;;;;;;5109380;28;20035;-75
2022/08/16 07:17:43;;;;;;;8.35;5.25;;;21.90;99.90;;;;;;5110163;28;20042;-73
2022/08/16 07:20:09;;;;;;;10.38;6.43;;;22.00;99.90;;;;;;5117951;28;20028;-74
2022/08/16 07:22:35;;;;;;;6.18;5.07;;;22.10;99.90;;;;;;5118324;28;20016;-73
2022/08/16 07:25:03;;;;;;;8.20;4.60;;;22.20;99.90;;;;;;5118925;28;20024;-74
2022/08/16 07:27:28;;;;;;;10.18;5.28;;;22.30;99.90;;;;;;5119555;28;20015;-74
2022/08/16 07:29:54;;;;;;;11.35;6.00;;;22.30;99.90;;;;;;5119384;28;20032;-74
2022/08/16 07:32:20;;;;;;;10.68;5.10;;;22.20;99.90;;;;;;5117515;28;20028;-75
2022/08/16 07:34:47;;;;;;;9.35;5.20;;;22.10;99.90;;;;;;5111380;28;20095;-74
2022/08/16 07:37:13;;;;;;;5.07;4.30;;;22.10;99.90;;;;;;5107902;28;20028;-74
2022/08/16 07:39:39;;;;;;;6.72;4.30;;;22.10;99.90;;;;;;5118945;28;20077;-75
2022/08/16 07:42:05;;;;;;;7.32;4.90;;;22.40;99.90;;;;;;5119177;28;20012;-74
2022/08/16 07:44:31;;;;;;;9.55;4.20;;;22.50;99.90;;;;;;5119099;28;20022;-75
2022/08/16 07:46:57;;;;;;;8.35;4.68;;;22.60;99.90;;;;;;5110617;28;20012;-75
2022/08/16 07:49:23;;;;;;;4.95;4.25;;;22.80;99.90;;;;;;5117549;28;20035;-74
2022/08/16 07:51:49;;;;;;;10.27;5.05;;;23.20;99.90;;;;;;5113263;28;20526;-74
2022/08/16 07:54:16;;;;;;;35.72;6.90;;;23.50;99.90;;;;;;5118284;28;20023;-75
2022/08/16 07:56:42;;;;;;;6.78;4.07;;;23.90;99.90;;;;;;5108836;28;20035;-74
2022/08/16 07:59:08;;;;;;;12.77;4.70;;;24.10;99.90;;;;;;5118540;28;20368;-75
2022/08/16 08:01:34;;;;;;;7.35;4.00;;;24.20;99.90;;;;;;5116295;28;20020;-75
2022/08/16 08:04:01;;;;;;;8.00;4.68;;;24.20;99.90;;;;;;5118563;28;20027;-76
2022/08/16 08:06:28;;;;;;;9.82;4.20;;;24.40;99.90;;;;;;5115526;28;20114;-76
2022/08/16 08:08:55;;;;;;;6.88;4.10;;;24.50;99.90;;;;;;5115483;28;20024;-73
2022/08/16 08:11:22;;;;;;;7.22;4.45;;;24.50;99.40;;;;;;5116088;28;20039;-74
2022/08/16 08:13:51;;;;;;;10.07;4.22;;;24.50;99.50;;;;;;5115921;28;20024;-73
2022/08/16 08:16:18;;;;;;;11.82;3.60;;;24.60;99.90;;;;;;5116630;28;20487;-75
2022/08/16 08:18:44;;;;;;;5.93;3.63;;;24.80;98.50;;;;;;5104920;28;20019;-74
2022/08/16 08:21:10;;;;;;;9.98;3.60;;;25.10;99.20;;;;;;5118056;28;20022;-77
2022/08/16 08:23:36;;;;;;;6.78;4.25;;;25.50;98.90;;;;;;5117912;28;20031;-75
2022/08/16 08:26:03;;;;;;;9.90;4.40;;;25.90;98.70;;;;;;5118009;28;20043;-76
2022/08/16 08:28:30;;;;;;;10.85;4.03;;;26.20;96.80;;;;;;5116097;28;20119;-76
2022/08/16 08:31:00;;;;;;;8.20;3.58;;;26.60;96.20;;;;;;5117955;28;20024;-76
2022/08/16 08:33:27;;;;;;;8.88;3.83;;;27.00;95.10;;;;;;5112190;28;20047;-76
2022/08/16 08:35:58;;;;;;;10.00;3.72;;;27.30;94.40;;;;;;5110605;28;20031;-77
2022/08/16 08:38:26;;;;;;;9.85;3.50;;;27.50;94.00;;;;;;5116215;28;20057;-76
2022/08/16 08:40:53;;;;;;;8.93;3.97;;;27.30;93.20;;;;;;5116339;28;20077;-77
2022/08/16 08:43:18;;;;;;;8.43;3.30;;;27.20;93.00;;;;;;5117622;28;20115;-76
2022/08/16 08:45:44;;;;;;;9.48;3.63;;;27.20;93.10;;;;;;5102794;28;20047;-75
2022/08/16 08:48:11;;;;;;;12.45;3.35;;;27.20;93.50;;;;;;5111549;28;20047;-77
2022/08/16 08:50:37;;;;;;;7.57;3.42;;;27.20;93.50;;;;;;5109498;28;20024;-77
2022/08/16 08:53:03;;;;;;;8.20;3.67;;;27.20;92.90;;;;;;5117549;28;20496;-76
2022/08/16 08:55:30;;;;;;;6.57;4.05;;;27.20;92.70;;;;;;5104667;28;20035;-77
2022/08/16 08:57:56;;;;;;;6.82;3.63;;;27.20;92.60;;;;;;5104278;28;20028;-76
2022/08/16 09:00:24;;;;;;;9.82;3.38;;;27.10;92.20;;;;;;5116457;28;20028;-77
2022/08/16 09:02:50;;;;;;;9.32;4.00;;;27.00;92.40;;;;;;5117251;28;20028;-77
2022/08/16 09:05:17;;;;;;;9.57;3.58;;;27.00;92.40;;;;;;5109954;28;20065;-76
2022/08/16 09:07:44;;;;;;;10.82;3.63;;;27.00;92.70;;;;;;5109681;28;20039;-75
2022/08/16 09:10:11;;;;;;;7.07;4.45;;;27.10;92.00;;;;;;5115381;28;20023;-76
2022/08/16 09:12:38;;;;;;;7.22;3.17;;;27.10;91.70;;;;;;5117562;28;20110;-75
2022/08/16 09:15:07;;;;;;;9.30;3.60;;;27.10;91.40;;;;;;5115277;28;20468;-76
2022/08/16 09:17:33;;;;;;;7.25;3.60;;;27.10;92.10;;;;;;5115356;28;20077;-75
2022/08/16 09:19:59;;;;;;;11.45;3.72;;;27.30;91.60;;;;;;5117266;28;20055;-77
2022/08/16 09:22:27;;;;;;;6.35;3.72;;;27.60;91.40;;;;;;5109361;28;20020;-76
2022/08/16 09:24:53;;;;;;;7.40;3.45;;;27.70;91.00;;;;;;5106120;28;20106;-74
2022/08/16 09:27:19;;;;;;;12.63;4.55;;;28.00;90.80;;;;;;5114603;28;20031;-74
2022/08/16 09:29:45;;;;;;;10.10;3.80;;;28.20;90.60;;;;;;5114747;28;20034;-75
2022/08/16 09:32:11;;;;;;;10.20;3.72;;;28.50;90.40;;;;;;5104586;28;20102;-75
2022/08/16 09:34:37;;;;;;;11.65;3.20;;;28.70;90.60;;;;;;5112110;28;20027;-76
2022/08/16 09:37:03;;;;;;;8.93;3.50;;;29.00;89.40;;;;;;5117037;28;20031;-76
2022/08/16 09:39:29;;;;;;;12.55;3.72;;;29.30;88.00;;;;;;5116834;28;20020;-76
2022/08/16 09:41:58;;;;;;;8.18;3.90;;;29.30;85.90;;;;;;5115785;28;20125;-76
2022/08/16 09:44:25;;;;;;;10.40;3.63;;;29.20;85.80;;;;;;5115667;28;20028;-76
2022/08/16 09:46:54;;;;;;;8.23;3.70;;;29.20;86.30;;;;;;5115559;28;20031;-77
2022/08/16 09:49:21;;;;;;;13.35;3.60;;;29.10;85.20;;;;;;5120129;28;20748;-77
2022/08/16 09:51:53;;;;;;;7.93;3.42;;;29.20;85.90;;;;;;5121001;28;20027;-75
2022/08/16 09:54:24;;;;;;;7.10;3.33;;;29.30;86.10;;;;;;5116761;28;20398;-76
2022/08/16 09:56:50;;;;;;;9.27;3.60;;;29.30;84.70;;;;;;5120982;28;20491;-76
2022/08/16 09:59:16;;;;;;;8.32;3.42;;;29.50;85.20;;;;;;5120821;28;20042;-76
2022/08/16 10:01:47;;;;;;;10.95;3.80;;;29.50;83.40;;;;;;5119027;28;20494;-77
2022/08/16 10:04:14;;;;;;;9.80;3.63;;;29.60;82.70;;;;;;5120181;28;20019;-76
2022/08/16 10:06:40;;;;;;;6.85;3.40;;;29.60;84.10;;;;;;5112409;28;20051;-76
2022/08/16 10:09:08;;;;;;;15.48;3.90;;;29.60;83.70;;;;;;5120517;28;20024;-75
2022/08/16 10:14:30;;;;;;;8.18;3.58;;;29.40;82.10;;;;;;5074672;28;20054;-77
2022/08/16 10:17:01;;;;;;;5.68;3.30;;;29.20;82.50;;;;;;5119611;28;20030;-77
2022/08/16 10:19:27;;;;;;;9.73;3.78;;;29.40;83.60;;;;;;5119250;28;20062;-77
2022/08/16 10:21:54;;;;;;;7.70;3.38;;;29.50;83.40;;;;;;5119429;28;20022;-76
2022/08/16 10:24:21;;;;;;;8.32;3.33;;;29.80;82.80;;;;;;5119196;28;20012;-77
2022/08/16 10:26:47;;;;;;;6.95;3.70;;;29.90;81.10;;;;;;5099069;28;20141;-76
2022/08/16 10:29:13;;;;;;;6.32;3.67;;;30.10;81.00;;;;;;5113141;28;20016;-77
2022/08/16 10:31:39;;;;;;;8.90;3.92;;;30.10;80.40;;;;;;5101640;28;20028;-77
2022/08/16 10:34:05;;;;;;;10.07;3.72;;;30.00;81.20;;;;;;5100808;28;20481;-77
2022/08/16 10:36:31;;;;;;;10.30;3.28;;;30.00;81.60;;;;;;5115571;28;20031;-78
2022/08/16 10:38:57;;;;;;;8.70;3.75;;;30.20;81.90;;;;;;5118964;28;20031;-77
2022/08/16 10:41:23;;;;;;;6.22;3.75;;;30.50;81.50;;;;;;5114874;28;20165;-78
2022/08/16 10:43:50;;;;;;;8.05;3.83;;;30.60;79.70;;;;;;5119226;28;20113;-77
2022/08/16 10:46:17;;;;;;;5.70;3.47;;;30.80;79.20;;;;;;5113012;28;20020;-76
2022/08/16 10:48:45;;;;;;;7.35;3.28;;;30.90;78.90;;;;;;5109073;28;20012;-78
2022/08/16 10:51:11;;;;;;;5.22;3.30;;;31.10;78.20;;;;;;5118952;28;20031;-77
2022/08/16 10:53:38;;;;;;;5.60;3.85;;;31.20;77.90;;;;;;5118842;28;20110;-78
2022/08/16 10:56:07;;;;;;;5.63;3.35;;;31.30;76.50;;;;;;5104385;28;20450;-78
2022/08/16 10:58:35;;;;;;;5.70;3.40;;;31.50;77.40;;;;;;5116164;28;20015;-78
2022/08/16 11:01:04;;;;;;;8.10;3.33;;;31.60;77.70;;;;;;5117832;28;20019;-78
2022/08/16 11:03:30;;;;;;;9.20;4.47;;;31.70;75.20;;;;;;5118851;28;20026;-77
2022/08/16 11:05:56;;;;;;;12.25;3.38;;;31.50;76.00;;;;;;5119028;28;20103;-78
2022/08/16 11:08:22;;;;;;;7.40;3.72;;;31.40;76.60;;;;;;5118522;28;20012;-78
2022/08/16 11:10:48;;;;;;;11.13;3.20;;;31.30;76.60;;;;;;5100525;28;20031;-78
2022/08/16 11:13:24;;;;;;;8.20;3.70;;;31.30;76.80;;;;;;5118478;28;20031;-77
2022/08/16 11:15:51;;;;;;;6.70;3.75;;;31.30;75.50;;;;;;5115901;28;20027;-78
2022/08/16 11:18:17;;;;;;;12.73;4.32;;;31.50;77.20;;;;;;5118151;27;20016;-77
2022/08/16 11:20:44;;;;;;;10.00;3.45;;;31.60;75.90;;;;;;5117264;28;20109;-77
2022/08/16 11:23:10;;;;;;;10.63;3.88;;;31.70;75.90;;;;;;5115613;28;20503;-79
2022/08/16 11:25:36;;;;;;;9.02;3.90;;;31.80;75.20;;;;;;5109888;28;20085;-78
2022/08/16 11:28:03;;;;;;;5.00;2.90;;;32.00;75.70;;;;;;5105752;28;20022;-78
2022/08/16 11:30:30;;;;;;;6.32;3.35;;;32.10;75.60;;;;;;5115553;28;20035;-79
2022/08/16 11:32:56;;;;;;;6.43;3.28;;;32.10;74.80;;;;;;5117876;28;20011;-77
2022/08/16 11:35:26;;;;;;;5.13;3.72;;;32.20;74.70;;;;;;5117055;28;20496;-77
2022/08/16 11:38:06;;;;;;;10.02;3.88;;;32.40;73.80;;;;;;5117948;28;20015;-78
2022/08/16 11:40:36;;;;;;;6.15;3.35;;;32.40;74.10;;;;;;5117973;28;20051;-77
2022/08/16 11:43:02;;;;;;;8.30;3.58;;;32.60;74.10;;;;;;5118144;28;20016;-77
2022/08/16 11:45:28;;;;;;;9.32;3.70;;;32.80;73.30;;;;;;5117857;28;20019;-78
2022/08/16 11:47:54;;;;;;;8.68;3.47;;;32.70;73.20;;;;;;5118062;28;20360;-78
2022/08/16 11:50:22;;;;;;;6.60;3.38;;;32.50;72.70;;;;;;5117609;28;20030;-78
2022/08/16 11:52:48;;;;;;;8.60;3.80;;;32.40;74.00;;;;;;5117683;28;20028;-79
2022/08/16 11:55:13;;;;;;;4.50;3.17;;;32.40;72.80;;;;;;5117124;28;20041;-76
2022/08/16 11:57:39;;;;;;;9.63;3.63;;;32.30;73.50;;;;;;5110493;28;20483;-77
2022/08/16 12:00:11;;;;;;;8.25;3.55;;;32.20;74.10;;;;;;5109559;28;20024;-78
2022/08/16 12:02:37;;;;;;;15.07;4.25;;;32.20;74.30;;;;;;5115812;28;20019;-77
2022/08/16 12:05:05;;;;;;;11.80;3.47;;;32.40;73.40;;;;;;5118505;27;20069;-79
2022/08/16 12:07:31;;;;;;;7.72;4.03;;;32.60;74.10;;;;;;5106340;28;20015;-77
2022/08/16 12:09:57;;;;;;;9.38;3.60;;;32.50;72.80;;;;;;5115600;28;20034;-77
2022/08/16 12:12:23;;;;;;;10.45;4.05;;;32.60;72.60;;;;;;5116904;28;20034;-77
2022/08/16 12:14:49;;;;;;;12.55;4.00;;;32.50;71.30;;;;;;5117139;28;20106;-80
2022/08/16 12:17:19;;;;;;;5.60;3.30;;;32.50;71.30;;;;;;5115775;28;20487;-80
2022/08/16 12:19:45;;;;;;;10.48;3.47;;;32.50;71.60;;;;;;5105863;28;20046;-79
2022/08/16 12:22:11;;;;;;;7.75;3.90;;;32.80;73.10;;;;;;5116467;28;20388;-79
2022/08/16 12:24:37;;;;;;;7.35;3.78;;;33.10;72.10;;;;;;5112515;28;20032;-80
2022/08/16 12:27:04;;;;;;;6.85;3.88;;;33.60;71.30;;;;;;5117790;28;20048;-79
2022/08/16 12:29:31;;;;;;;7.22;3.75;;;33.70;71.30;;;;;;5117882;28;20027;-79
2022/08/16 12:31:57;;;;;;;7.95;4.00;;;33.80;70.00;;;;;;5117604;28;20031;-79
2022/08/16 12:34:23;;;;;;;8.77;3.72;;;34.00;71.80;;;;;;5115461;28;20039;-80
2022/08/16 12:36:49;;;;;;;7.10;3.08;;;34.10;69.30;;;;;;5112099;28;20019;-77
2022/08/16 12:39:16;;;;;;;6.95;3.78;;;34.20;69.20;;;;;;5115950;28;20047;-76
2022/08/16 12:41:45;;;;;;;7.60;3.08;;;34.10;67.80;;;;;;5117882;28;20023;-79